createdAt,value
2023-01-10T00:01:39.754Z,4.10
2023-01-10T00:04:06.621Z,4.00
2023-01-10T00:06:33.596Z,3.90
2023-01-10T00:09:00.705Z,3.80
2023-01-10T00:11:46.140Z,3.90
2023-01-10T00:14:12.806Z,3.90
2023-01-10T00:16:40.661Z,3.80
2023-01-10T00:19:08.533Z,3.90
2023-01-10T00:21:35.278Z,3.90
2023-01-10T00:24:13.692Z,4.00
2023-01-10T00:26:40.534Z,4.00
2023-01-10T00:29:07.930Z,3.90
2023-01-10T00:31:34.626Z,3.90
2023-01-10T00:34:01.341Z,3.90
2023-01-10T00:36:27.983Z,4.00
2023-01-10T00:38:54.829Z,4.00
2023-01-10T00:41:40.085Z,4.00
2023-01-10T00:44:07.043Z,3.90
2023-01-10T00:46:34.198Z,3.90
2023-01-10T00:49:00.885Z,3.90
2023-01-10T00:51:27.624Z,4.00
2023-01-10T00:53:54.265Z,4.00
2023-01-10T00:56:20.943Z,3.90
2023-01-10T00:58:47.598Z,4.10
2023-01-10T01:01:14.398Z,3.90
2023-01-10T01:03:41.172Z,4.10
2023-01-10T01:06:08.560Z,4.10
2023-01-10T01:08:35.359Z,4.10
2023-01-10T01:11:02.400Z,3.90
2023-01-10T01:13:29.524Z,4.00
2023-01-10T01:16:00.416Z,4.10
2023-01-10T01:18:27.675Z,4.00
2023-01-10T01:20:56.818Z,4.00
2023-01-10T01:23:24.562Z,4.00
2023-01-10T01:25:53.236Z,4.00
2023-01-10T01:28:20.567Z,4.10
2023-01-10T01:30:47.661Z,4.00
2023-01-10T01:33:14.634Z,4.10
2023-01-10T01:35:46.192Z,4.00
2023-01-10T01:38:13.848Z,3.90
2023-01-10T01:40:41.680Z,3.90
2023-01-10T01:43:26.340Z,3.90
2023-01-10T01:45:53.814Z,4.00
2023-01-10T01:48:23.911Z,3.90
2023-01-10T01:51:09.377Z,4.00
2023-01-10T01:53:49.418Z,3.90
2023-01-10T01:56:42.833Z,3.90
2023-01-10T01:59:16.036Z,3.90
2023-01-10T02:01:46.714Z,4.00
2023-01-10T02:04:29.584Z,3.90
2023-01-10T02:06:58.232Z,3.90
2023-01-10T02:09:37.105Z,3.90
2023-01-10T02:12:03.933Z,3.90
2023-01-10T02:14:31.844Z,3.90
2023-01-10T02:16:58.649Z,3.90
2023-01-10T02:19:33.021Z,3.90
2023-01-10T02:22:16.543Z,4.00
2023-01-10T02:25:00.771Z,3.90
2023-01-10T02:27:45.665Z,3.80
2023-01-10T02:30:12.307Z,3.70
2023-01-10T02:32:50.379Z,3.80
2023-01-10T02:35:45.635Z,3.90
2023-01-10T02:38:24.273Z,3.80
2023-01-10T02:41:15.787Z,3.70
2023-01-10T02:43:54.306Z,3.80
2023-01-10T02:46:27.674Z,3.80
2023-01-10T02:48:55.482Z,3.90
2023-01-10T02:51:27.444Z,3.90
2023-01-10T02:54:08.218Z,3.80
2023-01-10T02:56:56.910Z,3.70
2023-01-10T02:59:23.643Z,3.70
2023-01-10T03:02:11.731Z,3.70
2023-01-10T03:05:16.212Z,3.80
2023-01-10T03:07:54.867Z,3.80
2023-01-10T03:10:30.145Z,3.80
2023-01-10T03:13:29.359Z,3.80
2023-01-10T03:15:57.646Z,3.80
2023-01-10T03:18:32.374Z,3.80
2023-01-10T03:21:03.407Z,3.80
2023-01-10T03:23:33.820Z,3.80
2023-01-10T03:26:02.355Z,3.80
2023-01-10T03:28:47.606Z,3.80
2023-01-10T03:31:21.164Z,3.80
2023-01-10T03:33:48.693Z,3.80
2023-01-10T03:36:23.052Z,3.80
2023-01-10T03:38:51.812Z,3.80
2023-01-10T03:41:49.219Z,3.80
2023-01-10T03:44:36.761Z,3.80
2023-01-10T03:47:19.341Z,3.80
2023-01-10T03:49:49.676Z,3.80
2023-01-10T03:52:18.714Z,3.80
2023-01-10T03:54:47.495Z,3.60
2023-01-10T03:57:22.439Z,3.60
2023-01-10T03:59:53.228Z,3.60
2023-01-10T04:02:20.773Z,3.60
2023-01-10T04:04:47.438Z,3.60
2023-01-10T04:07:14.146Z,3.60
2023-01-10T04:09:40.868Z,3.50
2023-01-10T04:12:07.664Z,3.60
2023-01-10T04:14:34.481Z,3.60
2023-01-10T04:17:01.600Z,3.60
2023-01-10T04:19:28.357Z,3.60
2023-01-10T04:21:55.239Z,3.50
2023-01-10T04:24:22.151Z,3.50
2023-01-10T04:26:49.138Z,3.60
2023-01-10T04:29:16.271Z,3.60
2023-01-10T04:31:52.267Z,3.50
2023-01-10T04:34:20.205Z,3.50
2023-01-10T04:36:48.429Z,3.60
2023-01-10T04:39:16.908Z,3.50
2023-01-10T04:41:43.589Z,3.50
2023-01-10T04:44:10.353Z,3.50
2023-01-10T04:46:37.070Z,3.60
2023-01-10T04:49:04.162Z,3.60
2023-01-10T04:51:30.870Z,3.60
2023-01-10T04:53:57.572Z,3.60
2023-01-10T04:56:24.455Z,3.60
2023-01-10T04:58:53.859Z,3.60
2023-01-10T05:01:23.443Z,3.60
2023-01-10T05:03:54.619Z,3.60
2023-01-10T05:06:23.062Z,3.50
2023-01-10T05:08:49.754Z,3.50
2023-01-10T05:11:16.497Z,3.60
2023-01-10T05:13:43.405Z,3.60
2023-01-10T05:16:10.245Z,3.60
2023-01-10T05:18:36.975Z,3.60
2023-01-10T05:21:06.836Z,3.60
2023-01-10T05:23:33.932Z,3.70
2023-01-10T05:26:19.810Z,3.60
2023-01-10T05:28:46.740Z,3.70
2023-01-10T05:31:15.571Z,3.70
2023-01-10T05:33:47.109Z,3.70
2023-01-10T05:36:14.274Z,3.70
2023-01-10T05:38:40.979Z,3.70
2023-01-10T05:41:07.790Z,3.70
2023-01-10T05:43:34.554Z,3.70
2023-01-10T05:46:01.328Z,3.70
2023-01-10T05:48:28.422Z,3.70
2023-01-10T05:50:55.164Z,3.70
2023-01-10T05:53:21.959Z,3.70
2023-01-10T05:55:58.662Z,3.70
2023-01-10T05:58:26.307Z,3.70
2023-01-10T06:00:54.682Z,3.80
2023-01-10T06:03:21.637Z,3.80
2023-01-10T06:05:49.101Z,3.70
2023-01-10T06:08:16.783Z,3.80
2023-01-10T06:10:44.077Z,3.80
2023-01-10T06:13:12.247Z,3.80
2023-01-10T06:15:39.257Z,3.80
2023-01-10T06:18:06.420Z,3.80
2023-01-10T06:20:33.225Z,3.80
2023-01-10T06:23:02.295Z,3.80
2023-01-10T06:25:29.362Z,3.70
2023-01-10T06:27:56.302Z,3.80
2023-01-10T06:30:23.401Z,3.80
2023-01-10T06:32:50.135Z,3.80
2023-01-10T06:35:18.148Z,3.80
2023-01-10T06:37:45.162Z,3.80
2023-01-10T06:40:12.444Z,3.60
2023-01-10T06:42:40.454Z,3.60
2023-01-10T06:45:07.672Z,3.60
2023-01-10T06:47:34.487Z,3.70
2023-01-10T06:50:01.192Z,3.70
2023-01-10T06:52:27.993Z,3.80
2023-01-10T06:54:54.781Z,3.80
2023-01-10T06:57:21.545Z,3.80
2023-01-10T06:59:48.269Z,3.70
2023-01-10T07:02:15.362Z,3.70
2023-01-10T07:04:42.145Z,3.70
2023-01-10T07:07:08.808Z,3.60
2023-01-10T07:09:35.495Z,3.50
2023-01-10T07:12:02.207Z,3.60
2023-01-10T07:14:29.081Z,3.60
2023-01-10T07:16:55.768Z,3.60
2023-01-10T07:19:22.639Z,3.70
2023-01-10T07:21:49.411Z,3.60
2023-01-10T07:24:16.215Z,3.50
2023-01-10T07:26:43.051Z,3.60
2023-01-10T07:29:10.013Z,3.60
2023-01-10T07:31:36.819Z,3.60
2023-01-10T07:34:03.789Z,3.60
2023-01-10T07:36:30.535Z,3.70
2023-01-10T07:38:57.244Z,3.60
2023-01-10T07:41:23.981Z,3.70
2023-01-10T07:43:50.674Z,3.70
2023-01-10T07:46:17.469Z,3.80
2023-01-10T07:48:46.185Z,3.70
2023-01-10T07:51:12.909Z,3.80
2023-01-10T07:53:39.684Z,3.80
2023-01-10T07:56:06.920Z,3.80
2023-01-10T07:58:33.797Z,3.80
2023-01-10T08:01:02.489Z,3.80
2023-01-10T08:03:30.475Z,3.90
2023-01-10T08:06:02.515Z,3.70
2023-01-10T08:08:29.839Z,3.90
2023-01-10T08:10:57.270Z,3.80
2023-01-10T08:13:24.169Z,3.80
2023-01-10T08:15:51.947Z,3.90
2023-01-10T08:18:20.588Z,3.80
2023-01-10T08:20:49.793Z,3.90
2023-01-10T08:23:17.341Z,3.90
2023-01-10T08:25:44.439Z,3.90
2023-01-10T08:28:11.622Z,3.90
2023-01-10T08:30:39.028Z,3.90
2023-01-10T08:33:07.279Z,3.90
2023-01-10T08:35:42.222Z,4.10
2023-01-10T08:38:10.896Z,3.90
2023-01-10T08:40:37.718Z,3.90
2023-01-10T08:43:07.390Z,4.00
2023-01-10T08:45:34.750Z,4.00
2023-01-10T08:48:02.080Z,4.00
2023-01-10T08:50:28.807Z,4.00
2023-01-10T08:52:58.967Z,3.80
2023-01-10T08:55:26.197Z,3.80
2023-01-10T08:57:53.366Z,3.80
2023-01-10T09:00:20.526Z,3.80
2023-01-10T09:02:47.322Z,3.90
2023-01-10T09:05:26.395Z,4.00
2023-01-10T09:07:58.052Z,4.00
2023-01-10T09:10:24.888Z,4.00
2023-01-10T09:12:58.647Z,4.10
2023-01-10T09:15:29.884Z,4.30
2023-01-10T09:17:58.765Z,4.30
2023-01-10T09:20:27.255Z,4.30
2023-01-10T09:22:54.532Z,4.30
2023-01-10T09:25:21.405Z,4.30
2023-01-10T09:27:48.293Z,4.20
2023-01-10T09:30:15.349Z,4.20
2023-01-10T09:32:42.114Z,4.20
2023-01-10T09:35:09.110Z,4.30
2023-01-10T09:37:38.193Z,4.40
2023-01-10T09:40:06.422Z,4.40
2023-01-10T09:42:47.627Z,4.50
2023-01-10T09:45:38.517Z,4.70
2023-01-10T09:48:09.293Z,4.70
2023-01-10T09:50:43.988Z,4.60
2023-01-10T09:53:22.979Z,4.60
2023-01-10T09:55:56.008Z,4.60
2023-01-10T09:58:29.489Z,4.60
2023-01-10T10:00:58.209Z,4.60
2023-01-10T10:03:45.066Z,4.70
2023-01-10T10:06:13.501Z,4.60
2023-01-10T10:08:45.544Z,4.70
2023-01-10T10:11:25.504Z,4.60
2023-01-10T10:14:19.767Z,4.70
2023-01-10T10:17:21.936Z,4.70
2023-01-10T10:19:59.989Z,4.60
2023-01-10T10:22:55.111Z,4.70
2023-01-10T10:25:31.152Z,4.70
2023-01-10T10:28:31.622Z,4.90
2023-01-10T10:31:24.636Z,5.00
2023-01-10T10:34:07.561Z,5.00
2023-01-10T10:36:42.142Z,5.10
2023-01-10T10:39:15.661Z,5.10
2023-01-10T10:41:46.330Z,5.10
2023-01-10T10:44:41.179Z,5.10
2023-01-10T10:47:15.424Z,5.10
2023-01-10T10:49:59.616Z,5.20
2023-01-10T10:52:32.149Z,5.10
2023-01-10T10:54:59.413Z,5.20
2023-01-10T10:57:29.037Z,5.10
2023-01-10T10:59:56.652Z,5.30
2023-01-10T11:02:28.478Z,5.30
2023-01-10T11:05:02.543Z,5.30
2023-01-10T11:07:34.463Z,5.40
2023-01-10T11:10:14.040Z,5.50
2023-01-10T11:12:45.678Z,5.60
2023-01-10T11:15:12.576Z,5.50
2023-01-10T11:17:41.440Z,5.70
2023-01-10T11:20:17.700Z,5.80
2023-01-10T11:22:50.930Z,6.10
2023-01-10T11:25:24.051Z,6.10
2023-01-10T11:27:57.822Z,6.10
2023-01-10T11:30:48.590Z,6.00
2023-01-10T11:33:23.192Z,5.90
2023-01-10T11:35:59.582Z,5.80
2023-01-10T11:38:30.271Z,5.70
2023-01-10T11:41:03.680Z,5.60
2023-01-10T11:43:30.389Z,5.60
2023-01-10T11:46:02.727Z,5.70
2023-01-10T11:49:04.381Z,5.70
2023-01-10T11:51:34.824Z,5.70
2023-01-10T11:54:04.929Z,5.70
2023-01-10T11:56:34.724Z,5.70
2023-01-10T11:59:09.392Z,5.70
2023-01-10T12:01:53.971Z,5.70
2023-01-10T12:04:22.784Z,5.60
2023-01-10T12:06:53.671Z,5.60
2023-01-10T12:09:40.648Z,5.50
2023-01-10T12:12:28.285Z,5.50
2023-01-10T12:14:57.700Z,5.50
2023-01-10T12:17:37.797Z,5.40
2023-01-10T12:20:07.092Z,5.20
2023-01-10T12:22:40.885Z,5.30
2023-01-10T12:25:21.332Z,5.30
2023-01-10T12:27:50.722Z,5.30
2023-01-10T12:30:19.003Z,5.50
2023-01-10T12:32:51.580Z,5.50
2023-01-10T12:35:25.740Z,5.50
2023-01-10T12:37:59.660Z,5.40
2023-01-10T12:40:37.626Z,5.50
2023-01-10T12:43:37.552Z,5.60
2023-01-10T12:46:29.725Z,5.60
2023-01-10T12:49:12.697Z,5.70
2023-01-10T12:51:40.922Z,5.80
2023-01-10T12:54:16.795Z,5.90
2023-01-10T12:56:44.940Z,5.80
2023-01-10T12:59:32.600Z,5.80
2023-01-10T13:02:07.752Z,5.80
2023-01-10T13:04:37.584Z,5.70
2023-01-10T13:07:05.080Z,5.80
2023-01-10T13:09:33.073Z,5.80
2023-01-10T13:12:20.292Z,5.90
2023-01-10T13:14:46.947Z,5.90
2023-01-10T13:17:31.781Z,5.80
2023-01-10T13:20:16.925Z,5.70
2023-01-10T13:22:48.989Z,5.70
2023-01-10T13:25:28.711Z,5.70
2023-01-10T13:28:05.957Z,6.00
2023-01-10T13:30:42.652Z,6.20
2023-01-10T13:33:23.044Z,6.40
2023-01-10T13:35:51.736Z,6.40
2023-01-10T13:38:23.235Z,6.20
2023-01-10T13:41:08.201Z,6.10
2023-01-10T13:43:58.832Z,6.10
2023-01-10T13:46:25.613Z,6.20
2023-01-10T13:49:00.592Z,6.60
2023-01-10T13:51:27.945Z,6.90
2023-01-10T13:54:21.579Z,7.20
2023-01-10T13:56:48.281Z,7.00
2023-01-10T14:00:33.820Z,6.60
2023-01-10T14:03:00.716Z,6.40
2023-01-10T14:05:28.045Z,6.20
2023-01-10T14:07:55.230Z,6.10
2023-01-10T14:10:28.504Z,6.00
2023-01-10T14:13:09.674Z,5.80
2023-01-10T14:15:42.808Z,5.80
2023-01-10T14:18:25.050Z,5.70
2023-01-10T14:21:02.982Z,5.60
2023-01-10T14:23:43.588Z,5.60
2023-01-10T14:26:40.563Z,5.60
2023-01-10T14:29:13.040Z,5.60
2023-01-10T14:31:47.963Z,5.60
2023-01-10T14:34:36.936Z,5.40
2023-01-10T14:37:15.626Z,5.40
2023-01-10T14:39:43.675Z,5.50
2023-01-10T14:42:16.659Z,5.40
2023-01-10T14:44:50.971Z,5.50
2023-01-10T14:47:38.339Z,5.50
2023-01-10T14:50:06.173Z,5.40
2023-01-10T14:52:33.080Z,5.40
2023-01-10T14:55:21.443Z,5.40
2023-01-10T14:58:02.000Z,5.50
2023-01-10T15:00:34.725Z,5.60
2023-01-10T15:03:04.346Z,5.70
2023-01-10T15:05:37.094Z,5.60
2023-01-10T15:08:25.504Z,5.60
2023-01-10T15:11:05.738Z,5.70
2023-01-10T15:13:43.128Z,5.70
2023-01-10T15:18:47.455Z,5.60
2023-01-10T15:21:16.284Z,5.30
2023-01-10T15:23:46.361Z,5.30
2023-01-10T15:26:25.398Z,5.30
2023-01-10T15:29:12.541Z,5.30
2023-01-10T15:31:41.493Z,5.20
2023-01-10T15:34:11.217Z,5.10
2023-01-10T15:36:48.679Z,5.10
2023-01-10T15:39:21.324Z,5.00
2023-01-10T15:41:48.820Z,5.00
2023-01-10T15:44:36.621Z,4.90
2023-01-10T15:47:03.401Z,4.90
2023-01-10T15:49:30.703Z,4.70
2023-01-10T15:51:58.297Z,4.60
2023-01-10T15:54:24.954Z,4.70
2023-01-10T15:57:16.124Z,4.70
2023-01-10T15:59:48.395Z,4.70
2023-01-10T16:02:32.332Z,4.40
2023-01-10T16:05:07.954Z,4.50
2023-01-10T16:07:35.879Z,4.40
2023-01-10T16:10:15.407Z,4.40
2023-01-10T16:13:01.977Z,4.30
2023-01-10T16:15:35.455Z,4.10
2023-01-10T16:18:02.466Z,4.10
2023-01-10T16:20:45.977Z,4.20
2023-01-10T16:23:25.735Z,4.20
2023-01-10T16:25:55.907Z,4.10
2023-01-10T16:28:23.919Z,4.20
2023-01-10T16:30:50.671Z,4.30
2023-01-10T16:33:26.294Z,4.20
2023-01-10T16:35:58.936Z,4.40
2023-01-10T16:38:28.135Z,4.40
2023-01-10T16:41:00.485Z,4.30
2023-01-10T16:43:29.369Z,4.30
2023-01-10T16:46:01.313Z,4.30
2023-01-10T16:48:30.223Z,4.30
2023-01-10T16:51:12.656Z,4.20
2023-01-10T16:53:39.417Z,4.10
2023-01-10T16:56:07.118Z,4.20
2023-01-10T16:58:34.001Z,4.10
2023-01-10T17:01:01.334Z,4.00
2023-01-10T17:03:29.356Z,4.00
2023-01-10T17:05:56.177Z,4.10
2023-01-10T17:08:24.542Z,4.10
2023-01-10T17:10:56.287Z,4.10
2023-01-10T17:13:33.159Z,4.10
2023-01-10T17:16:00.372Z,4.00
2023-01-10T17:18:28.549Z,3.90
2023-01-10T17:20:57.352Z,3.80
2023-01-10T17:23:25.870Z,3.80
2023-01-10T17:26:04.496Z,3.80
2023-01-10T17:28:31.638Z,3.80
2023-01-10T17:30:58.910Z,3.80
2023-01-10T17:33:26.788Z,3.80
2023-01-10T17:35:55.819Z,3.80
2023-01-10T17:38:24.253Z,3.80
2023-01-10T17:40:51.493Z,3.90
2023-01-10T17:43:19.449Z,3.60
2023-01-10T17:45:49.124Z,3.60
2023-01-10T17:48:17.410Z,3.60
2023-01-10T17:50:45.767Z,3.70
2023-01-10T17:53:13.070Z,3.60
2023-01-10T17:55:47.223Z,3.50
2023-01-10T17:58:14.997Z,3.50
2023-01-10T18:00:42.020Z,3.50
2023-01-10T18:03:09.639Z,3.50
2023-01-10T18:05:36.855Z,3.60
2023-01-10T18:08:05.554Z,3.60
2023-01-10T18:10:33.193Z,3.60
2023-01-10T18:13:01.900Z,3.70
2023-01-10T18:15:30.343Z,3.70
2023-01-10T18:17:57.933Z,3.70
2023-01-10T18:20:24.882Z,3.80
2023-01-10T18:23:10.106Z,3.70
2023-01-10T18:25:36.839Z,3.70
2023-01-10T18:28:03.598Z,3.60
2023-01-10T18:30:30.322Z,3.50
2023-01-10T18:32:57.097Z,3.40
2023-01-10T18:35:24.006Z,3.30
2023-01-10T18:37:50.701Z,3.30
2023-01-10T18:40:17.698Z,3.30
2023-01-10T18:42:44.427Z,3.40
2023-01-10T18:45:11.136Z,3.10
2023-01-10T18:47:37.885Z,3.00
2023-01-10T18:50:05.136Z,3.10
2023-01-10T18:52:31.866Z,3.20
2023-01-10T18:55:00.867Z,3.20
2023-01-10T18:57:32.519Z,3.30
2023-01-10T18:59:59.355Z,3.30
2023-01-10T19:02:26.107Z,3.30
2023-01-10T19:04:52.928Z,3.30
2023-01-10T19:07:19.660Z,3.20
2023-01-10T19:09:46.375Z,3.20
2023-01-10T19:12:13.114Z,3.30
2023-01-10T19:14:39.835Z,3.40
2023-01-10T19:17:06.673Z,3.50
2023-01-10T19:19:33.422Z,3.50
2023-01-10T19:22:00.388Z,3.60
2023-01-10T19:24:29.618Z,3.60
2023-01-10T19:26:56.697Z,3.60
2023-01-10T19:29:24.100Z,3.50
2023-01-10T19:31:51.182Z,3.60
2023-01-10T19:34:17.932Z,3.60
2023-01-10T19:36:45.728Z,3.60
2023-01-10T19:39:13.271Z,3.60
2023-01-10T19:41:40.278Z,3.50
2023-01-10T19:44:16.670Z,3.60
2023-01-10T19:46:47.526Z,3.30
2023-01-10T19:49:17.687Z,3.40
2023-01-10T19:51:47.720Z,3.20
2023-01-10T19:54:14.440Z,3.20
2023-01-10T19:56:41.128Z,3.10
2023-01-10T19:59:08.046Z,3.30
2023-01-10T20:01:34.835Z,3.50
2023-01-10T20:04:03.870Z,3.50
2023-01-10T20:06:34.618Z,3.50
2023-01-10T20:09:01.456Z,3.50
2023-01-10T20:11:37.461Z,3.60
2023-01-10T20:14:10.217Z,3.50
2023-01-10T20:16:36.864Z,3.60
2023-01-10T20:19:08.902Z,3.60
2023-01-10T20:21:37.180Z,3.50
2023-01-10T20:24:08.679Z,3.60
2023-01-10T20:26:36.345Z,3.60
2023-01-10T20:29:04.431Z,3.60
2023-01-10T20:31:32.150Z,3.50
2023-01-10T20:33:59.239Z,3.60
2023-01-10T20:36:26.691Z,3.60
2023-01-10T20:38:53.714Z,3.80
2023-01-10T20:41:30.665Z,3.80
2023-01-10T20:43:57.992Z,3.80
2023-01-10T20:46:27.575Z,3.70
2023-01-10T20:48:56.072Z,3.80
2023-01-10T20:51:27.213Z,3.80
2023-01-10T20:53:54.264Z,3.80
2023-01-10T20:56:24.041Z,3.70
2023-01-10T20:58:51.206Z,3.60
2023-01-10T21:01:32.573Z,3.70
2023-01-10T21:04:00.330Z,3.70
2023-01-10T21:06:27.303Z,3.70
2023-01-10T21:08:54.083Z,3.70
2023-01-10T21:11:21.264Z,3.70
2023-01-10T21:13:48.027Z,3.70
2023-01-10T21:16:18.062Z,3.70
2023-01-10T21:18:45.311Z,3.80
2023-01-10T21:21:14.740Z,3.70
2023-01-10T21:23:42.268Z,3.70
2023-01-10T21:26:12.256Z,3.70
2023-01-10T21:28:46.460Z,3.70
2023-01-10T21:31:19.020Z,3.70
2023-01-10T21:33:46.078Z,3.80
2023-01-10T21:36:13.893Z,3.80
2023-01-10T21:38:41.520Z,3.80
2023-01-10T21:41:35.984Z,3.80
2023-01-10T21:44:04.258Z,3.90
2023-01-10T21:46:31.122Z,3.90
2023-01-10T21:48:58.024Z,3.90
2023-01-10T21:51:24.806Z,3.90
2023-01-10T21:53:51.618Z,3.90
2023-01-10T21:56:18.383Z,3.90
2023-01-10T21:58:45.744Z,3.80
2023-01-10T22:01:12.544Z,3.90
2023-01-10T22:03:39.639Z,4.00
2023-01-10T22:06:06.913Z,4.00
2023-01-10T22:08:33.657Z,3.90
2023-01-10T22:11:00.478Z,4.00
2023-01-10T22:13:27.317Z,4.10
2023-01-10T22:16:01.343Z,4.10
2023-01-10T22:18:29.864Z,4.10
2023-01-10T22:20:57.816Z,4.00
2023-01-10T22:23:24.971Z,4.00
2023-01-10T22:26:02.263Z,4.00
2023-01-10T22:28:29.407Z,4.00
2023-01-10T22:30:56.361Z,3.90
2023-01-10T22:33:24.312Z,3.90
2023-01-10T22:35:51.068Z,3.80
2023-01-10T22:38:17.757Z,3.80
2023-01-10T22:40:44.520Z,3.70
2023-01-10T22:43:11.479Z,3.70
2023-01-10T22:45:44.402Z,3.70
2023-01-10T22:48:11.336Z,3.60
2023-01-10T22:50:38.075Z,3.40
2023-01-10T22:53:04.816Z,3.40
2023-01-10T22:55:34.232Z,3.30
2023-01-10T22:58:00.976Z,3.30
2023-01-10T23:00:28.899Z,3.30
2023-01-10T23:02:55.594Z,3.30
2023-01-10T23:05:22.365Z,3.30
2023-01-10T23:07:50.673Z,3.20
2023-01-10T23:10:29.705Z,3.20
2023-01-10T23:12:57.888Z,3.20
2023-01-10T23:15:29.022Z,3.20
2023-01-10T23:17:55.842Z,3.20
2023-01-10T23:20:22.900Z,3.20
2023-01-10T23:22:49.580Z,3.20
2023-01-10T23:25:16.468Z,3.30
2023-01-10T23:27:43.472Z,3.30
2023-01-10T23:30:11.155Z,3.40
2023-01-10T23:32:38.088Z,3.40
2023-01-10T23:35:05.181Z,3.40
2023-01-10T23:37:31.844Z,3.40
2023-01-10T23:39:58.580Z,3.20
2023-01-10T23:42:25.371Z,3.40
2023-01-10T23:44:52.053Z,3.30
2023-01-10T23:47:18.758Z,3.30
2023-01-10T23:49:45.517Z,3.30
2023-01-10T23:52:14.803Z,3.20
2023-01-10T23:54:41.500Z,3.30
2023-01-10T23:57:08.164Z,3.30
2023-01-10T23:59:34.873Z,3.30
